Aérodrome :
LOGIN :

S'inscrire | Disclaimer

   EN    FR    IT 

 










Légende :    VFR   VFR Marginal   IFR   IFR Intensif   IFR Très Intensif
Visi : 
Plafond : 
>= 8 km
>= 3000ft
5 à 8 km
1000 à 3000 ft
1500m à 5 km
500 à 1000 ft
800 à 1500m
200 à 500 ft
< 800m
< 200 ft
Symboles :   Orages  Brouillard  Fortes neiges  Fortes précipitations  Vent > 20 kt
SIGMETs :   Divers  Orages  Givrage  Turbulence  Onde Orograph.  Cendres Volcan.







- Altitude de l'aérodrome : 870 ft
- Code IATA : ETZ
- Voir les cartes d'approche


LFJL - Metz Nancy Lorraine

DERNIER METAR :
  • 251100Z AUTO 07018KT CAVOK M01/M14 Q1022 TEMPO 07022G32KT

METARs EXPIRÉS :
  • 251030Z AUTO 07018KT CAVOK M02/M14 Q1022 TEMPO 07022G32KT
  • 251000Z AUTO 07017KT CAVOK M03/M13 Q1022 TEMPO 07022G32KT
  • 250930Z AUTO 07022KT CAVOK M04/M13 Q1022 TEMPO 07022G32KT
  • 250900Z AUTO 06022KT CAVOK M04/M13 Q1022 TEMPO 07022G32KT
  • 250830Z AUTO 07022KT CAVOK M05/M13 Q1022 TEMPO 07022G32KT

TAF TAF LFJL
Valide du 25 à 12h jusqu'au 26 à 12h UTC


251100Z 2512/2612 07015G25KT CAVOK
Pas de NOTAMs connus pour ce terrain.



MET'MAP, la Météo Aéronautique d'un coup d'oeil ! - Copyright ORBIFLY Décembre 2007 - Disclaimer

ORBIFLY MET'MAP TEAM :

Programmation & Développement : Alexandra Zaïnal
Conception & Développement : Baudouin d'Aumeries
Co-Programmation & Développement : Marc-Olivier Méhu
Soutien technique & logistique : Manuel Goepfert

Contact : metmap@orbifly.com




SOURCES & CREDITS :

   NOAA